<?xml version="1.0" encoding="UTF-8" standalone="no" ?>
<gpx xmlns="http://www.topografix.com/GPX/1/1" xmlns:xsi="http://www.w3.org/2001/XMLSchema-instance" xsi:schemaLocation="http://www.topografix.com/GPX/1/1 http://www.topografix.com/GPX/1/1/gpx.xsd" version="1.1" creator="VisuGPX - https://www.visugpx.com">
  <metadata>
    <name>Le Vexin d'Us à Brignancourt</name>
    <desc><![CDATA[Le Vexin d'Us à Brignancourt.
Chaussée Jules César
Le Perchay
Santeuil]]></desc>
  </metadata>
  <trk>
    <name><![CDATA[8566858-Vexin Us Brignancourt]]></name>
    <trkseg>
      <trkpt lat="49.09969" lon="1.97098">
        <ele>50</ele>
        <time>2018-05-16T21:30:13Z</time>
      </trkpt>
      <trkpt lat="49.09969" lon="1.97085">
        <ele>50</ele>
        <time>2018-05-16T21:31:13Z</time>
      </trkpt>
      <trkpt lat="49.101" lon="1.9702">
        <ele>49</ele>
        <time>2018-05-16T21:32:13Z</time>
      </trkpt>
      <trkpt lat="49.1009" lon="1.96974">
        <ele>50</ele>
        <time>2018-05-16T21:33:13Z</time>
      </trkpt>
      <trkpt lat="49.10081" lon="1.96964">
        <ele>50</ele>
        <time>2018-05-16T21:34:13Z</time>
      </trkpt>
      <trkpt lat="49.10071" lon="1.96954">
        <ele>50</ele>
        <time>2018-05-16T21:35:13Z</time>
      </trkpt>
      <trkpt lat="49.10058" lon="1.96956">
        <ele>51</ele>
        <time>2018-05-16T21:36:13Z</time>
      </trkpt>
      <trkpt lat="49.10054" lon="1.96944">
        <ele>51</ele>
        <time>2018-05-16T21:37:13Z</time>
      </trkpt>
      <trkpt lat="49.10054" lon="1.96933">
        <ele>52</ele>
        <time>2018-05-16T21:38:13Z</time>
      </trkpt>
      <trkpt lat="49.10032" lon="1.96874">
        <ele>56</ele>
        <time>2018-05-16T21:39:13Z</time>
      </trkpt>
      <trkpt lat="49.10013" lon="1.96799">
        <ele>63</ele>
        <time>2018-05-16T21:40:13Z</time>
      </trkpt>
      <trkpt lat="49.10017" lon="1.96765">
        <ele>65</ele>
        <time>2018-05-16T21:41:13Z</time>
      </trkpt>
      <trkpt lat="49.10009" lon="1.96772">
        <ele>65</ele>
        <time>2018-05-16T21:42:13Z</time>
      </trkpt>
      <trkpt lat="49.09992" lon="1.96761">
        <ele>67</ele>
        <time>2018-05-16T21:43:13Z</time>
      </trkpt>
      <trkpt lat="49.09974" lon="1.96723">
        <ele>70</ele>
        <time>2018-05-16T21:44:13Z</time>
      </trkpt>
      <trkpt lat="49.09958" lon="1.96671">
        <ele>72</ele>
        <time>2018-05-16T21:45:13Z</time>
      </trkpt>
      <trkpt lat="49.09946" lon="1.96595">
        <ele>78</ele>
        <time>2018-05-16T21:46:13Z</time>
      </trkpt>
      <trkpt lat="49.09917" lon="1.96626">
        <ele>76</ele>
        <time>2018-05-16T21:47:13Z</time>
      </trkpt>
      <trkpt lat="49.09884" lon="1.96669">
        <ele>74</ele>
        <time>2018-05-16T21:48:13Z</time>
      </trkpt>
      <trkpt lat="49.09861" lon="1.96697">
        <ele>73</ele>
        <time>2018-05-16T21:49:13Z</time>
      </trkpt>
      <trkpt lat="49.09847" lon="1.96711">
        <ele>72</ele>
        <time>2018-05-16T21:50:13Z</time>
      </trkpt>
      <trkpt lat="49.0983" lon="1.96704">
        <ele>72</ele>
        <time>2018-05-16T21:51:13Z</time>
      </trkpt>
      <trkpt lat="49.09796" lon="1.96664">
        <ele>70</ele>
        <time>2018-05-16T21:52:13Z</time>
      </trkpt>
      <trkpt lat="49.09782" lon="1.96668">
        <ele>69</ele>
        <time>2018-05-16T21:53:13Z</time>
      </trkpt>
      <trkpt lat="49.09765" lon="1.96683">
        <ele>68</ele>
        <time>2018-05-16T21:54:13Z</time>
      </trkpt>
      <trkpt lat="49.09746" lon="1.96692">
        <ele>67</ele>
        <time>2018-05-16T21:55:13Z</time>
      </trkpt>
      <trkpt lat="49.0972" lon="1.9669">
        <ele>64</ele>
        <time>2018-05-16T21:56:13Z</time>
      </trkpt>
      <trkpt lat="49.09661" lon="1.96668">
        <ele>59</ele>
        <time>2018-05-16T21:57:13Z</time>
      </trkpt>
      <trkpt lat="49.09637" lon="1.96651">
        <ele>58</ele>
        <time>2018-05-16T21:58:13Z</time>
      </trkpt>
      <trkpt lat="49.09614" lon="1.96636">
        <ele>57</ele>
        <time>2018-05-16T21:59:13Z</time>
      </trkpt>
      <trkpt lat="49.0959" lon="1.96623">
        <ele>55</ele>
        <time>2018-05-16T22:00:13Z</time>
      </trkpt>
      <trkpt lat="49.09549" lon="1.96596">
        <ele>54</ele>
        <time>2018-05-16T22:01:13Z</time>
      </trkpt>
      <trkpt lat="49.09534" lon="1.96591">
        <ele>53</ele>
        <time>2018-05-16T22:02:13Z</time>
      </trkpt>
      <trkpt lat="49.09504" lon="1.9659">
        <ele>52</ele>
        <time>2018-05-16T22:03:13Z</time>
      </trkpt>
      <trkpt lat="49.09465" lon="1.96593">
        <ele>52</ele>
        <time>2018-05-16T22:04:13Z</time>
      </trkpt>
      <trkpt lat="49.0945" lon="1.96597">
        <ele>51</ele>
        <time>2018-05-16T22:05:13Z</time>
      </trkpt>
      <trkpt lat="49.09425" lon="1.9661">
        <ele>51</ele>
        <time>2018-05-16T22:06:13Z</time>
      </trkpt>
      <trkpt lat="49.09412" lon="1.96615">
        <ele>51</ele>
        <time>2018-05-16T22:07:13Z</time>
      </trkpt>
      <trkpt lat="49.09386" lon="1.96625">
        <ele>53</ele>
        <time>2018-05-16T22:08:13Z</time>
      </trkpt>
      <trkpt lat="49.09374" lon="1.96631">
        <ele>54</ele>
        <time>2018-05-16T22:09:13Z</time>
      </trkpt>
      <trkpt lat="49.09346" lon="1.96638">
        <ele>56</ele>
        <time>2018-05-16T22:10:13Z</time>
      </trkpt>
      <trkpt lat="49.09313" lon="1.96641">
        <ele>60</ele>
        <time>2018-05-16T22:11:13Z</time>
      </trkpt>
      <trkpt lat="49.093" lon="1.96649">
        <ele>62</ele>
        <time>2018-05-16T22:12:13Z</time>
      </trkpt>
      <trkpt lat="49.09283" lon="1.96704">
        <ele>64</ele>
        <time>2018-05-16T22:13:13Z</time>
      </trkpt>
      <trkpt lat="49.0927" lon="1.96733">
        <ele>66</ele>
        <time>2018-05-16T22:14:13Z</time>
      </trkpt>
      <trkpt lat="49.09258" lon="1.96751">
        <ele>68</ele>
        <time>2018-05-16T22:15:13Z</time>
      </trkpt>
      <trkpt lat="49.09244" lon="1.96764">
        <ele>68</ele>
        <time>2018-05-16T22:16:13Z</time>
      </trkpt>
      <trkpt lat="49.09235" lon="1.96767">
        <ele>69</ele>
        <time>2018-05-16T22:17:13Z</time>
      </trkpt>
      <trkpt lat="49.09222" lon="1.96762">
        <ele>70</ele>
        <time>2018-05-16T22:18:13Z</time>
      </trkpt>
      <trkpt lat="49.09199" lon="1.96742">
        <ele>73</ele>
        <time>2018-05-16T22:19:13Z</time>
      </trkpt>
      <trkpt lat="49.09178" lon="1.96719">
        <ele>75</ele>
        <time>2018-05-16T22:20:13Z</time>
      </trkpt>
      <trkpt lat="49.09168" lon="1.96712">
        <ele>76</ele>
        <time>2018-05-16T22:21:13Z</time>
      </trkpt>
      <trkpt lat="49.09149" lon="1.96706">
        <ele>78</ele>
        <time>2018-05-16T22:22:13Z</time>
      </trkpt>
      <trkpt lat="49.08983" lon="1.96711">
        <ele>83</ele>
        <time>2018-05-16T22:23:13Z</time>
      </trkpt>
      <trkpt lat="49.08858" lon="1.96718">
        <ele>84</ele>
        <time>2018-05-16T22:24:13Z</time>
      </trkpt>
      <trkpt lat="49.08753" lon="1.96703">
        <ele>85</ele>
        <time>2018-05-16T22:25:13Z</time>
      </trkpt>
      <trkpt lat="49.08757" lon="1.96651">
        <ele>88</ele>
        <time>2018-05-16T22:26:13Z</time>
      </trkpt>
      <trkpt lat="49.08749" lon="1.96532">
        <ele>92</ele>
        <time>2018-05-16T22:27:13Z</time>
      </trkpt>
      <trkpt lat="49.08708" lon="1.9629">
        <ele>102</ele>
        <time>2018-05-16T22:28:13Z</time>
      </trkpt>
      <trkpt lat="49.08733" lon="1.96248">
        <ele>102</ele>
        <time>2018-05-16T22:29:13Z</time>
      </trkpt>
      <trkpt lat="49.08804" lon="1.96084">
        <ele>104</ele>
        <time>2018-05-16T22:30:13Z</time>
      </trkpt>
      <trkpt lat="49.08843" lon="1.96">
        <ele>104</ele>
        <time>2018-05-16T22:31:13Z</time>
      </trkpt>
      <trkpt lat="49.08863" lon="1.95954">
        <ele>102</ele>
        <time>2018-05-16T22:32:13Z</time>
      </trkpt>
      <trkpt lat="49.08899" lon="1.95875">
        <ele>98</ele>
        <time>2018-05-16T22:33:13Z</time>
      </trkpt>
      <trkpt lat="49.0891" lon="1.95848">
        <ele>96</ele>
        <time>2018-05-16T22:34:13Z</time>
      </trkpt>
      <trkpt lat="49.08915" lon="1.95831">
        <ele>95</ele>
        <time>2018-05-16T22:35:13Z</time>
      </trkpt>
      <trkpt lat="49.08918" lon="1.95803">
        <ele>94</ele>
        <time>2018-05-16T22:36:13Z</time>
      </trkpt>
      <trkpt lat="49.08914" lon="1.95777">
        <ele>94</ele>
        <time>2018-05-16T22:37:13Z</time>
      </trkpt>
      <trkpt lat="49.08908" lon="1.95761">
        <ele>93</ele>
        <time>2018-05-16T22:38:13Z</time>
      </trkpt>
      <trkpt lat="49.08879" lon="1.95716">
        <ele>93</ele>
        <time>2018-05-16T22:39:13Z</time>
      </trkpt>
      <trkpt lat="49.08868" lon="1.95696">
        <ele>92</ele>
        <time>2018-05-16T22:40:13Z</time>
      </trkpt>
      <trkpt lat="49.0885" lon="1.95678">
        <ele>92</ele>
        <time>2018-05-16T22:41:13Z</time>
      </trkpt>
      <trkpt lat="49.08831" lon="1.95662">
        <ele>92</ele>
        <time>2018-05-16T22:42:13Z</time>
      </trkpt>
      <trkpt lat="49.08812" lon="1.95645">
        <ele>93</ele>
        <time>2018-05-16T22:43:13Z</time>
      </trkpt>
      <trkpt lat="49.0881" lon="1.95624">
        <ele>93</ele>
        <time>2018-05-16T22:44:13Z</time>
      </trkpt>
      <trkpt lat="49.08819" lon="1.95612">
        <ele>93</ele>
        <time>2018-05-16T22:45:13Z</time>
      </trkpt>
      <trkpt lat="49.08838" lon="1.9561">
        <ele>93</ele>
        <time>2018-05-16T22:46:13Z</time>
      </trkpt>
      <trkpt lat="49.08855" lon="1.95605">
        <ele>93</ele>
        <time>2018-05-16T22:47:13Z</time>
      </trkpt>
      <trkpt lat="49.08871" lon="1.95597">
        <ele>93</ele>
        <time>2018-05-16T22:48:13Z</time>
      </trkpt>
      <trkpt lat="49.08891" lon="1.9558">
        <ele>93</ele>
        <time>2018-05-16T22:49:13Z</time>
      </trkpt>
      <trkpt lat="49.08905" lon="1.95549">
        <ele>93</ele>
        <time>2018-05-16T22:50:13Z</time>
      </trkpt>
      <trkpt lat="49.08911" lon="1.9553">
        <ele>93</ele>
        <time>2018-05-16T22:51:13Z</time>
      </trkpt>
      <trkpt lat="49.08915" lon="1.95508">
        <ele>93</ele>
        <time>2018-05-16T22:52:13Z</time>
      </trkpt>
      <trkpt lat="49.08918" lon="1.95492">
        <ele>93</ele>
        <time>2018-05-16T22:53:13Z</time>
      </trkpt>
      <trkpt lat="49.08939" lon="1.95345">
        <ele>98</ele>
        <time>2018-05-16T22:54:13Z</time>
      </trkpt>
      <trkpt lat="49.08949" lon="1.9528">
        <ele>99</ele>
        <time>2018-05-16T22:55:13Z</time>
      </trkpt>
      <trkpt lat="49.08956" lon="1.95229">
        <ele>99</ele>
        <time>2018-05-16T22:56:13Z</time>
      </trkpt>
      <trkpt lat="49.08974" lon="1.95102">
        <ele>100</ele>
        <time>2018-05-16T22:57:13Z</time>
      </trkpt>
      <trkpt lat="49.08988" lon="1.94974">
        <ele>101</ele>
        <time>2018-05-16T22:58:13Z</time>
      </trkpt>
      <trkpt lat="49.08998" lon="1.94931">
        <ele>101</ele>
        <time>2018-05-16T22:59:13Z</time>
      </trkpt>
      <trkpt lat="49.09003" lon="1.94904">
        <ele>100</ele>
        <time>2018-05-16T23:00:13Z</time>
      </trkpt>
      <trkpt lat="49.09004" lon="1.94871">
        <ele>98</ele>
        <time>2018-05-16T23:01:13Z</time>
      </trkpt>
      <trkpt lat="49.09009" lon="1.94843">
        <ele>96</ele>
        <time>2018-05-16T23:02:13Z</time>
      </trkpt>
      <trkpt lat="49.09019" lon="1.94827">
        <ele>95</ele>
        <time>2018-05-16T23:03:13Z</time>
      </trkpt>
      <trkpt lat="49.09028" lon="1.94826">
        <ele>95</ele>
        <time>2018-05-16T23:04:13Z</time>
      </trkpt>
      <trkpt lat="49.09087" lon="1.94848">
        <ele>92</ele>
        <time>2018-05-16T23:05:13Z</time>
      </trkpt>
      <trkpt lat="49.09107" lon="1.94863">
        <ele>93</ele>
        <time>2018-05-16T23:06:13Z</time>
      </trkpt>
      <trkpt lat="49.09147" lon="1.94889">
        <ele>92</ele>
        <time>2018-05-16T23:07:13Z</time>
      </trkpt>
      <trkpt lat="49.09177" lon="1.94898">
        <ele>93</ele>
        <time>2018-05-16T23:08:13Z</time>
      </trkpt>
      <trkpt lat="49.09197" lon="1.94901">
        <ele>94</ele>
        <time>2018-05-16T23:09:13Z</time>
      </trkpt>
      <trkpt lat="49.09219" lon="1.94899">
        <ele>95</ele>
        <time>2018-05-16T23:10:13Z</time>
      </trkpt>
      <trkpt lat="49.09294" lon="1.94874">
        <ele>101</ele>
        <time>2018-05-16T23:11:13Z</time>
      </trkpt>
      <trkpt lat="49.09319" lon="1.94858">
        <ele>103</ele>
        <time>2018-05-16T23:12:13Z</time>
      </trkpt>
      <trkpt lat="49.09341" lon="1.9483">
        <ele>104</ele>
        <time>2018-05-16T23:13:13Z</time>
      </trkpt>
      <trkpt lat="49.09358" lon="1.94791">
        <ele>106</ele>
        <time>2018-05-16T23:14:13Z</time>
      </trkpt>
      <trkpt lat="49.09393" lon="1.94705">
        <ele>109</ele>
        <time>2018-05-16T23:15:13Z</time>
      </trkpt>
      <trkpt lat="49.09415" lon="1.94653">
        <ele>110</ele>
        <time>2018-05-16T23:16:13Z</time>
      </trkpt>
      <trkpt lat="49.09538" lon="1.94355">
        <ele>111</ele>
        <time>2018-05-16T23:17:13Z</time>
      </trkpt>
      <trkpt lat="49.09667" lon="1.94562">
        <ele>110</ele>
        <time>2018-05-16T23:18:13Z</time>
      </trkpt>
      <trkpt lat="49.09711" lon="1.94635">
        <ele>109</ele>
        <time>2018-05-16T23:19:13Z</time>
      </trkpt>
      <trkpt lat="49.0977" lon="1.94788">
        <ele>107</ele>
        <time>2018-05-16T23:20:13Z</time>
      </trkpt>
      <trkpt lat="49.09827" lon="1.94946">
        <ele>106</ele>
        <time>2018-05-16T23:21:13Z</time>
      </trkpt>
      <trkpt lat="49.09897" lon="1.95128">
        <ele>104</ele>
        <time>2018-05-16T23:22:13Z</time>
      </trkpt>
      <trkpt lat="49.09965" lon="1.95329">
        <ele>102</ele>
        <time>2018-05-16T23:23:13Z</time>
      </trkpt>
      <trkpt lat="49.10012" lon="1.95452">
        <ele>100</ele>
        <time>2018-05-16T23:24:13Z</time>
      </trkpt>
      <trkpt lat="49.10038" lon="1.9555">
        <ele>95</ele>
        <time>2018-05-16T23:25:13Z</time>
      </trkpt>
      <trkpt lat="49.10036" lon="1.95622">
        <ele>91</ele>
        <time>2018-05-16T23:26:13Z</time>
      </trkpt>
      <trkpt lat="49.10014" lon="1.95732">
        <ele>87</ele>
        <time>2018-05-16T23:27:13Z</time>
      </trkpt>
      <trkpt lat="49.1" lon="1.95821">
        <ele>84</ele>
        <time>2018-05-16T23:28:13Z</time>
      </trkpt>
      <trkpt lat="49.10007" lon="1.95872">
        <ele>84</ele>
        <time>2018-05-16T23:29:13Z</time>
      </trkpt>
      <trkpt lat="49.10055" lon="1.95987">
        <ele>83</ele>
        <time>2018-05-16T23:30:13Z</time>
      </trkpt>
      <trkpt lat="49.10073" lon="1.96085">
        <ele>84</ele>
        <time>2018-05-16T23:31:13Z</time>
      </trkpt>
      <trkpt lat="49.10098" lon="1.96196">
        <ele>85</ele>
        <time>2018-05-16T23:32:13Z</time>
      </trkpt>
      <trkpt lat="49.10158" lon="1.96053">
        <ele>87</ele>
        <time>2018-05-16T23:33:13Z</time>
      </trkpt>
      <trkpt lat="49.10177" lon="1.96019">
        <ele>87</ele>
        <time>2018-05-16T23:34:13Z</time>
      </trkpt>
      <trkpt lat="49.10204" lon="1.95984">
        <ele>88</ele>
        <time>2018-05-16T23:35:13Z</time>
      </trkpt>
      <trkpt lat="49.1027" lon="1.95924">
        <ele>90</ele>
        <time>2018-05-16T23:36:13Z</time>
      </trkpt>
      <trkpt lat="49.10332" lon="1.9581">
        <ele>90</ele>
        <time>2018-05-16T23:37:13Z</time>
      </trkpt>
      <trkpt lat="49.10461" lon="1.95574">
        <ele>89</ele>
        <time>2018-05-16T23:38:13Z</time>
      </trkpt>
      <trkpt lat="49.10429" lon="1.9494">
        <ele>96</ele>
        <time>2018-05-16T23:39:13Z</time>
      </trkpt>
      <trkpt lat="49.10432" lon="1.94854">
        <ele>95</ele>
        <time>2018-05-16T23:40:13Z</time>
      </trkpt>
      <trkpt lat="49.10413" lon="1.94805">
        <ele>95</ele>
        <time>2018-05-16T23:41:13Z</time>
      </trkpt>
      <trkpt lat="49.10381" lon="1.94675">
        <ele>96</ele>
        <time>2018-05-16T23:42:13Z</time>
      </trkpt>
      <trkpt lat="49.10355" lon="1.94574">
        <ele>97</ele>
        <time>2018-05-16T23:43:13Z</time>
      </trkpt>
      <trkpt lat="49.10313" lon="1.94465">
        <ele>98</ele>
        <time>2018-05-16T23:44:13Z</time>
      </trkpt>
      <trkpt lat="49.10219" lon="1.94275">
        <ele>101</ele>
        <time>2018-05-16T23:45:13Z</time>
      </trkpt>
      <trkpt lat="49.10167" lon="1.94162">
        <ele>102</ele>
        <time>2018-05-16T23:46:13Z</time>
      </trkpt>
      <trkpt lat="49.10123" lon="1.94089">
        <ele>103</ele>
        <time>2018-05-16T23:47:13Z</time>
      </trkpt>
      <trkpt lat="49.10071" lon="1.94023">
        <ele>103</ele>
        <time>2018-05-16T23:48:13Z</time>
      </trkpt>
      <trkpt lat="49.1001" lon="1.93952">
        <ele>104</ele>
        <time>2018-05-16T23:49:13Z</time>
      </trkpt>
      <trkpt lat="49.09959" lon="1.93907">
        <ele>105</ele>
        <time>2018-05-16T23:50:13Z</time>
      </trkpt>
      <trkpt lat="49.099" lon="1.93868">
        <ele>106</ele>
        <time>2018-05-16T23:51:13Z</time>
      </trkpt>
      <trkpt lat="49.09864" lon="1.93848">
        <ele>107</ele>
        <time>2018-05-16T23:52:13Z</time>
      </trkpt>
      <trkpt lat="49.09817" lon="1.93805">
        <ele>107</ele>
        <time>2018-05-16T23:53:13Z</time>
      </trkpt>
      <trkpt lat="49.09782" lon="1.93772">
        <ele>107</ele>
        <time>2018-05-16T23:54:13Z</time>
      </trkpt>
      <trkpt lat="49.09888" lon="1.93524">
        <ele>108</ele>
        <time>2018-05-16T23:55:13Z</time>
      </trkpt>
      <trkpt lat="49.09947" lon="1.93387">
        <ele>109</ele>
        <time>2018-05-16T23:56:13Z</time>
      </trkpt>
      <trkpt lat="49.09981" lon="1.93304">
        <ele>110</ele>
        <time>2018-05-16T23:57:13Z</time>
      </trkpt>
      <trkpt lat="49.10024" lon="1.93206">
        <ele>112</ele>
        <time>2018-05-16T23:58:13Z</time>
      </trkpt>
      <trkpt lat="49.1007" lon="1.93098">
        <ele>113</ele>
        <time>2018-05-16T23:59:13Z</time>
      </trkpt>
      <trkpt lat="49.10109" lon="1.93002">
        <ele>112</ele>
        <time>2018-05-17T00:00:13Z</time>
      </trkpt>
      <trkpt lat="49.10156" lon="1.92887">
        <ele>109</ele>
        <time>2018-05-17T00:01:13Z</time>
      </trkpt>
      <trkpt lat="49.10238" lon="1.92701">
        <ele>104</ele>
        <time>2018-05-17T00:02:13Z</time>
      </trkpt>
      <trkpt lat="49.10255" lon="1.92648">
        <ele>103</ele>
        <time>2018-05-17T00:03:13Z</time>
      </trkpt>
      <trkpt lat="49.10275" lon="1.92606">
        <ele>102</ele>
        <time>2018-05-17T00:04:13Z</time>
      </trkpt>
      <trkpt lat="49.1029" lon="1.92612">
        <ele>102</ele>
        <time>2018-05-17T00:05:13Z</time>
      </trkpt>
      <trkpt lat="49.10331" lon="1.92635">
        <ele>101</ele>
        <time>2018-05-17T00:06:13Z</time>
      </trkpt>
      <trkpt lat="49.10379" lon="1.92646">
        <ele>101</ele>
        <time>2018-05-17T00:07:13Z</time>
      </trkpt>
      <trkpt lat="49.10458" lon="1.92646">
        <ele>99</ele>
        <time>2018-05-17T00:08:13Z</time>
      </trkpt>
      <trkpt lat="49.10519" lon="1.92643">
        <ele>97</ele>
        <time>2018-05-17T00:09:13Z</time>
      </trkpt>
      <trkpt lat="49.10564" lon="1.92648">
        <ele>96</ele>
        <time>2018-05-17T00:10:13Z</time>
      </trkpt>
      <trkpt lat="49.10651" lon="1.92674">
        <ele>93</ele>
        <time>2018-05-17T00:11:13Z</time>
      </trkpt>
      <trkpt lat="49.1072" lon="1.927">
        <ele>97</ele>
        <time>2018-05-17T00:12:13Z</time>
      </trkpt>
      <trkpt lat="49.10702" lon="1.92866">
        <ele>94</ele>
        <time>2018-05-17T00:13:13Z</time>
      </trkpt>
      <trkpt lat="49.10719" lon="1.92893">
        <ele>94</ele>
        <time>2018-05-17T00:14:13Z</time>
      </trkpt>
      <trkpt lat="49.10764" lon="1.92987">
        <ele>94</ele>
        <time>2018-05-17T00:15:13Z</time>
      </trkpt>
      <trkpt lat="49.10797" lon="1.93065">
        <ele>95</ele>
        <time>2018-05-17T00:16:13Z</time>
      </trkpt>
      <trkpt lat="49.10844" lon="1.93222">
        <ele>93</ele>
        <time>2018-05-17T00:17:13Z</time>
      </trkpt>
      <trkpt lat="49.10872" lon="1.93304">
        <ele>92</ele>
        <time>2018-05-17T00:18:13Z</time>
      </trkpt>
      <trkpt lat="49.10903" lon="1.93324">
        <ele>93</ele>
        <time>2018-05-17T00:19:13Z</time>
      </trkpt>
      <trkpt lat="49.10924" lon="1.93354">
        <ele>92</ele>
        <time>2018-05-17T00:20:13Z</time>
      </trkpt>
      <trkpt lat="49.10958" lon="1.93391">
        <ele>92</ele>
        <time>2018-05-17T00:21:13Z</time>
      </trkpt>
      <trkpt lat="49.11011" lon="1.9344">
        <ele>93</ele>
        <time>2018-05-17T00:22:13Z</time>
      </trkpt>
      <trkpt lat="49.1102" lon="1.93466">
        <ele>93</ele>
        <time>2018-05-17T00:23:13Z</time>
      </trkpt>
      <trkpt lat="49.11046" lon="1.93529">
        <ele>92</ele>
        <time>2018-05-17T00:24:13Z</time>
      </trkpt>
      <trkpt lat="49.11051" lon="1.93548">
        <ele>91</ele>
        <time>2018-05-17T00:25:13Z</time>
      </trkpt>
      <trkpt lat="49.11062" lon="1.93606">
        <ele>89</ele>
        <time>2018-05-17T00:26:13Z</time>
      </trkpt>
      <trkpt lat="49.11082" lon="1.93654">
        <ele>87</ele>
        <time>2018-05-17T00:27:13Z</time>
      </trkpt>
      <trkpt lat="49.11102" lon="1.93695">
        <ele>84</ele>
        <time>2018-05-17T00:28:13Z</time>
      </trkpt>
      <trkpt lat="49.11184" lon="1.93782">
        <ele>75</ele>
        <time>2018-05-17T00:29:13Z</time>
      </trkpt>
      <trkpt lat="49.11222" lon="1.93824">
        <ele>71</ele>
        <time>2018-05-17T00:30:13Z</time>
      </trkpt>
      <trkpt lat="49.11262" lon="1.93877">
        <ele>69</ele>
        <time>2018-05-17T00:31:13Z</time>
      </trkpt>
      <trkpt lat="49.11293" lon="1.93921">
        <ele>70</ele>
        <time>2018-05-17T00:32:13Z</time>
      </trkpt>
      <trkpt lat="49.11322" lon="1.9397">
        <ele>68</ele>
        <time>2018-05-17T00:33:13Z</time>
      </trkpt>
      <trkpt lat="49.11344" lon="1.94">
        <ele>67</ele>
        <time>2018-05-17T00:34:13Z</time>
      </trkpt>
      <trkpt lat="49.11367" lon="1.94034">
        <ele>69</ele>
        <time>2018-05-17T00:35:13Z</time>
      </trkpt>
      <trkpt lat="49.11377" lon="1.9408">
        <ele>69</ele>
        <time>2018-05-17T00:36:13Z</time>
      </trkpt>
      <trkpt lat="49.11387" lon="1.94132">
        <ele>70</ele>
        <time>2018-05-17T00:37:13Z</time>
      </trkpt>
      <trkpt lat="49.11396" lon="1.94162">
        <ele>70</ele>
        <time>2018-05-17T00:38:13Z</time>
      </trkpt>
      <trkpt lat="49.1141" lon="1.94237">
        <ele>68</ele>
        <time>2018-05-17T00:39:13Z</time>
      </trkpt>
      <trkpt lat="49.11446" lon="1.9438">
        <ele>67</ele>
        <time>2018-05-17T00:40:13Z</time>
      </trkpt>
      <trkpt lat="49.1148" lon="1.94478">
        <ele>66</ele>
        <time>2018-05-17T00:41:13Z</time>
      </trkpt>
      <trkpt lat="49.11493" lon="1.94516">
        <ele>64</ele>
        <time>2018-05-17T00:42:13Z</time>
      </trkpt>
      <trkpt lat="49.1152" lon="1.94554">
        <ele>64</ele>
        <time>2018-05-17T00:43:13Z</time>
      </trkpt>
      <trkpt lat="49.11573" lon="1.94605">
        <ele>64</ele>
        <time>2018-05-17T00:44:13Z</time>
      </trkpt>
      <trkpt lat="49.1163" lon="1.94651">
        <ele>62</ele>
        <time>2018-05-17T00:45:13Z</time>
      </trkpt>
      <trkpt lat="49.11662" lon="1.94666">
        <ele>63</ele>
        <time>2018-05-17T00:46:13Z</time>
      </trkpt>
      <trkpt lat="49.1168" lon="1.94675">
        <ele>64</ele>
        <time>2018-05-17T00:47:13Z</time>
      </trkpt>
      <trkpt lat="49.11748" lon="1.9473">
        <ele>63</ele>
        <time>2018-05-17T00:48:13Z</time>
      </trkpt>
      <trkpt lat="49.11797" lon="1.94784">
        <ele>64</ele>
        <time>2018-05-17T00:49:13Z</time>
      </trkpt>
      <trkpt lat="49.11836" lon="1.94839">
        <ele>63</ele>
        <time>2018-05-17T00:50:13Z</time>
      </trkpt>
      <trkpt lat="49.11865" lon="1.94863">
        <ele>63</ele>
        <time>2018-05-17T00:51:13Z</time>
      </trkpt>
      <trkpt lat="49.11866" lon="1.94863">
        <ele>63</ele>
        <time>2018-05-17T00:52:13Z</time>
      </trkpt>
      <trkpt lat="49.11889" lon="1.94868">
        <ele>64</ele>
        <time>2018-05-17T00:53:13Z</time>
      </trkpt>
      <trkpt lat="49.11915" lon="1.94864">
        <ele>67</ele>
        <time>2018-05-17T00:54:13Z</time>
      </trkpt>
      <trkpt lat="49.11947" lon="1.9484">
        <ele>66</ele>
        <time>2018-05-17T00:55:13Z</time>
      </trkpt>
      <trkpt lat="49.11966" lon="1.94808">
        <ele>65</ele>
        <time>2018-05-17T00:56:13Z</time>
      </trkpt>
      <trkpt lat="49.11985" lon="1.94762">
        <ele>62</ele>
        <time>2018-05-17T00:57:13Z</time>
      </trkpt>
      <trkpt lat="49.12006" lon="1.9468">
        <ele>62</ele>
        <time>2018-05-17T00:58:13Z</time>
      </trkpt>
      <trkpt lat="49.12021" lon="1.94612">
        <ele>64</ele>
        <time>2018-05-17T00:59:13Z</time>
      </trkpt>
      <trkpt lat="49.1203" lon="1.94566">
        <ele>64</ele>
        <time>2018-05-17T01:00:13Z</time>
      </trkpt>
      <trkpt lat="49.12025" lon="1.94524">
        <ele>66</ele>
        <time>2018-05-17T01:01:13Z</time>
      </trkpt>
      <trkpt lat="49.12026" lon="1.94481">
        <ele>67</ele>
        <time>2018-05-17T01:02:13Z</time>
      </trkpt>
      <trkpt lat="49.12027" lon="1.9443">
        <ele>67</ele>
        <time>2018-05-17T01:03:13Z</time>
      </trkpt>
      <trkpt lat="49.12036" lon="1.94413">
        <ele>67</ele>
        <time>2018-05-17T01:04:13Z</time>
      </trkpt>
      <trkpt lat="49.12067" lon="1.94337">
        <ele>64</ele>
        <time>2018-05-17T01:05:13Z</time>
      </trkpt>
      <trkpt lat="49.12102" lon="1.94279">
        <ele>63</ele>
        <time>2018-05-17T01:06:13Z</time>
      </trkpt>
      <trkpt lat="49.12133" lon="1.94206">
        <ele>63</ele>
        <time>2018-05-17T01:07:13Z</time>
      </trkpt>
      <trkpt lat="49.12143" lon="1.94171">
        <ele>62</ele>
        <time>2018-05-17T01:08:13Z</time>
      </trkpt>
      <trkpt lat="49.12165" lon="1.94127">
        <ele>62</ele>
        <time>2018-05-17T01:09:13Z</time>
      </trkpt>
      <trkpt lat="49.12188" lon="1.94068">
        <ele>64</ele>
        <time>2018-05-17T01:10:13Z</time>
      </trkpt>
      <trkpt lat="49.122" lon="1.94056">
        <ele>64</ele>
        <time>2018-05-17T01:11:13Z</time>
      </trkpt>
      <trkpt lat="49.12231" lon="1.9404">
        <ele>64</ele>
        <time>2018-05-17T01:12:13Z</time>
      </trkpt>
      <trkpt lat="49.12243" lon="1.94039">
        <ele>63</ele>
        <time>2018-05-17T01:13:13Z</time>
      </trkpt>
      <trkpt lat="49.12264" lon="1.94038">
        <ele>63</ele>
        <time>2018-05-17T01:14:13Z</time>
      </trkpt>
      <trkpt lat="49.1228" lon="1.94033">
        <ele>63</ele>
        <time>2018-05-17T01:15:13Z</time>
      </trkpt>
      <trkpt lat="49.12309" lon="1.94022">
        <ele>64</ele>
        <time>2018-05-17T01:16:13Z</time>
      </trkpt>
      <trkpt lat="49.12327" lon="1.94001">
        <ele>65</ele>
        <time>2018-05-17T01:17:13Z</time>
      </trkpt>
      <trkpt lat="49.12337" lon="1.93977">
        <ele>66</ele>
        <time>2018-05-17T01:18:13Z</time>
      </trkpt>
      <trkpt lat="49.12344" lon="1.93949">
        <ele>67</ele>
        <time>2018-05-17T01:19:13Z</time>
      </trkpt>
      <trkpt lat="49.12358" lon="1.93877">
        <ele>67</ele>
        <time>2018-05-17T01:20:13Z</time>
      </trkpt>
      <trkpt lat="49.12366" lon="1.93849">
        <ele>67</ele>
        <time>2018-05-17T01:21:13Z</time>
      </trkpt>
      <trkpt lat="49.12378" lon="1.93828">
        <ele>66</ele>
        <time>2018-05-17T01:22:13Z</time>
      </trkpt>
      <trkpt lat="49.12405" lon="1.93812">
        <ele>65</ele>
        <time>2018-05-17T01:23:13Z</time>
      </trkpt>
      <trkpt lat="49.12434" lon="1.93807">
        <ele>63</ele>
        <time>2018-05-17T01:24:13Z</time>
      </trkpt>
      <trkpt lat="49.1245" lon="1.93799">
        <ele>62</ele>
        <time>2018-05-17T01:25:13Z</time>
      </trkpt>
      <trkpt lat="49.12468" lon="1.9377">
        <ele>61</ele>
        <time>2018-05-17T01:26:13Z</time>
      </trkpt>
      <trkpt lat="49.12487" lon="1.93745">
        <ele>61</ele>
        <time>2018-05-17T01:27:13Z</time>
      </trkpt>
      <trkpt lat="49.12511" lon="1.93773">
        <ele>58</ele>
        <time>2018-05-17T01:28:13Z</time>
      </trkpt>
      <trkpt lat="49.12527" lon="1.93794">
        <ele>58</ele>
        <time>2018-05-17T01:29:13Z</time>
      </trkpt>
      <trkpt lat="49.12561" lon="1.93825">
        <ele>56</ele>
        <time>2018-05-17T01:30:13Z</time>
      </trkpt>
      <trkpt lat="49.12597" lon="1.93849">
        <ele>56</ele>
        <time>2018-05-17T01:31:13Z</time>
      </trkpt>
      <trkpt lat="49.12628" lon="1.93863">
        <ele>59</ele>
        <time>2018-05-17T01:32:13Z</time>
      </trkpt>
      <trkpt lat="49.12663" lon="1.93868">
        <ele>61</ele>
        <time>2018-05-17T01:33:13Z</time>
      </trkpt>
      <trkpt lat="49.12685" lon="1.9385">
        <ele>62</ele>
        <time>2018-05-17T01:34:13Z</time>
      </trkpt>
      <trkpt lat="49.12722" lon="1.93798">
        <ele>64</ele>
        <time>2018-05-17T01:35:13Z</time>
      </trkpt>
      <trkpt lat="49.12742" lon="1.9378">
        <ele>64</ele>
        <time>2018-05-17T01:36:13Z</time>
      </trkpt>
      <trkpt lat="49.12756" lon="1.93773">
        <ele>65</ele>
        <time>2018-05-17T01:37:13Z</time>
      </trkpt>
      <trkpt lat="49.12775" lon="1.9377">
        <ele>66</ele>
        <time>2018-05-17T01:38:13Z</time>
      </trkpt>
      <trkpt lat="49.12818" lon="1.9377">
        <ele>67</ele>
        <time>2018-05-17T01:39:13Z</time>
      </trkpt>
      <trkpt lat="49.12858" lon="1.93766">
        <ele>71</ele>
        <time>2018-05-17T01:40:13Z</time>
      </trkpt>
      <trkpt lat="49.12907" lon="1.93756">
        <ele>76</ele>
        <time>2018-05-17T01:41:13Z</time>
      </trkpt>
      <trkpt lat="49.12951" lon="1.93754">
        <ele>78</ele>
        <time>2018-05-17T01:42:13Z</time>
      </trkpt>
      <trkpt lat="49.13023" lon="1.93745">
        <ele>81</ele>
        <time>2018-05-17T01:43:13Z</time>
      </trkpt>
      <trkpt lat="49.13047" lon="1.9374">
        <ele>83</ele>
        <time>2018-05-17T01:44:13Z</time>
      </trkpt>
      <trkpt lat="49.13073" lon="1.93711">
        <ele>83</ele>
        <time>2018-05-17T01:45:13Z</time>
      </trkpt>
      <trkpt lat="49.13097" lon="1.9367">
        <ele>82</ele>
        <time>2018-05-17T01:46:13Z</time>
      </trkpt>
      <trkpt lat="49.13115" lon="1.93622">
        <ele>81</ele>
        <time>2018-05-17T01:47:13Z</time>
      </trkpt>
      <trkpt lat="49.13163" lon="1.93492">
        <ele>83</ele>
        <time>2018-05-17T01:48:13Z</time>
      </trkpt>
      <trkpt lat="49.13244" lon="1.93304">
        <ele>87</ele>
        <time>2018-05-17T01:49:13Z</time>
      </trkpt>
      <trkpt lat="49.13267" lon="1.9333">
        <ele>88</ele>
        <time>2018-05-17T01:50:13Z</time>
      </trkpt>
      <trkpt lat="49.13284" lon="1.93341">
        <ele>88</ele>
        <time>2018-05-17T01:51:13Z</time>
      </trkpt>
      <trkpt lat="49.13314" lon="1.93345">
        <ele>88</ele>
        <time>2018-05-17T01:52:13Z</time>
      </trkpt>
      <trkpt lat="49.13345" lon="1.93339">
        <ele>88</ele>
        <time>2018-05-17T01:53:13Z</time>
      </trkpt>
      <trkpt lat="49.13385" lon="1.93326">
        <ele>89</ele>
        <time>2018-05-17T01:54:13Z</time>
      </trkpt>
      <trkpt lat="49.13423" lon="1.93319">
        <ele>89</ele>
        <time>2018-05-17T01:55:13Z</time>
      </trkpt>
      <trkpt lat="49.13468" lon="1.93309">
        <ele>90</ele>
        <time>2018-05-17T01:56:13Z</time>
      </trkpt>
      <trkpt lat="49.13488" lon="1.93313">
        <ele>90</ele>
        <time>2018-05-17T01:57:13Z</time>
      </trkpt>
      <trkpt lat="49.13513" lon="1.93328">
        <ele>90</ele>
        <time>2018-05-17T01:58:13Z</time>
      </trkpt>
      <trkpt lat="49.13555" lon="1.93389">
        <ele>90</ele>
        <time>2018-05-17T01:59:13Z</time>
      </trkpt>
      <trkpt lat="49.13601" lon="1.93449">
        <ele>88</ele>
        <time>2018-05-17T02:00:13Z</time>
      </trkpt>
      <trkpt lat="49.13633" lon="1.93479">
        <ele>88</ele>
        <time>2018-05-17T02:01:13Z</time>
      </trkpt>
      <trkpt lat="49.13672" lon="1.93506">
        <ele>87</ele>
        <time>2018-05-17T02:02:13Z</time>
      </trkpt>
      <trkpt lat="49.13687" lon="1.93527">
        <ele>85</ele>
        <time>2018-05-17T02:03:13Z</time>
      </trkpt>
      <trkpt lat="49.13687" lon="1.93528">
        <ele>85</ele>
        <time>2018-05-17T02:04:13Z</time>
      </trkpt>
      <trkpt lat="49.13685" lon="1.93571">
        <ele>84</ele>
        <time>2018-05-17T02:05:13Z</time>
      </trkpt>
      <trkpt lat="49.13676" lon="1.93625">
        <ele>81</ele>
        <time>2018-05-17T02:06:13Z</time>
      </trkpt>
      <trkpt lat="49.1367" lon="1.93702">
        <ele>77</ele>
        <time>2018-05-17T02:07:13Z</time>
      </trkpt>
      <trkpt lat="49.13696" lon="1.93668">
        <ele>77</ele>
        <time>2018-05-17T02:08:13Z</time>
      </trkpt>
      <trkpt lat="49.13718" lon="1.93628">
        <ele>78</ele>
        <time>2018-05-17T02:09:13Z</time>
      </trkpt>
      <trkpt lat="49.13742" lon="1.93576">
        <ele>81</ele>
        <time>2018-05-17T02:10:13Z</time>
      </trkpt>
      <trkpt lat="49.1378" lon="1.93514">
        <ele>81</ele>
        <time>2018-05-17T02:11:13Z</time>
      </trkpt>
      <trkpt lat="49.13833" lon="1.93418">
        <ele>86</ele>
        <time>2018-05-17T02:12:13Z</time>
      </trkpt>
      <trkpt lat="49.13872" lon="1.93313">
        <ele>85</ele>
        <time>2018-05-17T02:13:13Z</time>
      </trkpt>
      <trkpt lat="49.13906" lon="1.93233">
        <ele>84</ele>
        <time>2018-05-17T02:14:13Z</time>
      </trkpt>
      <trkpt lat="49.1397" lon="1.93113">
        <ele>87</ele>
        <time>2018-05-17T02:15:13Z</time>
      </trkpt>
      <trkpt lat="49.13998" lon="1.93052">
        <ele>88</ele>
        <time>2018-05-17T02:16:13Z</time>
      </trkpt>
      <trkpt lat="49.14018" lon="1.93011">
        <ele>89</ele>
        <time>2018-05-17T02:17:13Z</time>
      </trkpt>
      <trkpt lat="49.1404" lon="1.92973">
        <ele>90</ele>
        <time>2018-05-17T02:18:13Z</time>
      </trkpt>
      <trkpt lat="49.14093" lon="1.92897">
        <ele>91</ele>
        <time>2018-05-17T02:19:13Z</time>
      </trkpt>
      <trkpt lat="49.14165" lon="1.92778">
        <ele>93</ele>
        <time>2018-05-17T02:20:13Z</time>
      </trkpt>
      <trkpt lat="49.14219" lon="1.92666">
        <ele>93</ele>
        <time>2018-05-17T02:21:13Z</time>
      </trkpt>
      <trkpt lat="49.14271" lon="1.92561">
        <ele>93</ele>
        <time>2018-05-17T02:22:13Z</time>
      </trkpt>
      <trkpt lat="49.14304" lon="1.92499">
        <ele>93</ele>
        <time>2018-05-17T02:23:13Z</time>
      </trkpt>
      <trkpt lat="49.14382" lon="1.92343">
        <ele>93</ele>
        <time>2018-05-17T02:24:13Z</time>
      </trkpt>
      <trkpt lat="49.14472" lon="1.92201">
        <ele>93</ele>
        <time>2018-05-17T02:25:13Z</time>
      </trkpt>
      <trkpt lat="49.14527" lon="1.921">
        <ele>93</ele>
        <time>2018-05-17T02:26:13Z</time>
      </trkpt>
      <trkpt lat="49.14549" lon="1.92055">
        <ele>92</ele>
        <time>2018-05-17T02:27:13Z</time>
      </trkpt>
      <trkpt lat="49.14593" lon="1.91935">
        <ele>92</ele>
        <time>2018-05-17T02:28:13Z</time>
      </trkpt>
      <trkpt lat="49.14667" lon="1.91752">
        <ele>92</ele>
        <time>2018-05-17T02:29:13Z</time>
      </trkpt>
      <trkpt lat="49.14677" lon="1.9174">
        <ele>92</ele>
        <time>2018-05-17T02:30:13Z</time>
      </trkpt>
      <trkpt lat="49.14684" lon="1.91771">
        <ele>92</ele>
        <time>2018-05-17T02:31:13Z</time>
      </trkpt>
      <trkpt lat="49.14727" lon="1.91851">
        <ele>90</ele>
        <time>2018-05-17T02:32:13Z</time>
      </trkpt>
      <trkpt lat="49.14755" lon="1.91913">
        <ele>89</ele>
        <time>2018-05-17T02:33:13Z</time>
      </trkpt>
      <trkpt lat="49.14765" lon="1.91969">
        <ele>88</ele>
        <time>2018-05-17T02:34:13Z</time>
      </trkpt>
      <trkpt lat="49.14779" lon="1.92056">
        <ele>88</ele>
        <time>2018-05-17T02:35:13Z</time>
      </trkpt>
      <trkpt lat="49.14764" lon="1.92048">
        <ele>87</ele>
        <time>2018-05-17T02:36:13Z</time>
      </trkpt>
      <trkpt lat="49.14743" lon="1.92069">
        <ele>87</ele>
        <time>2018-05-17T02:37:13Z</time>
      </trkpt>
      <trkpt lat="49.14721" lon="1.92112">
        <ele>87</ele>
        <time>2018-05-17T02:38:13Z</time>
      </trkpt>
      <trkpt lat="49.147" lon="1.92217">
        <ele>87</ele>
        <time>2018-05-17T02:39:13Z</time>
      </trkpt>
      <trkpt lat="49.14683" lon="1.92374">
        <ele>84</ele>
        <time>2018-05-17T02:40:13Z</time>
      </trkpt>
      <trkpt lat="49.14667" lon="1.92432">
        <ele>82</ele>
        <time>2018-05-17T02:41:13Z</time>
      </trkpt>
      <trkpt lat="49.14649" lon="1.9254">
        <ele>80</ele>
        <time>2018-05-17T02:42:13Z</time>
      </trkpt>
      <trkpt lat="49.14641" lon="1.92645">
        <ele>76</ele>
        <time>2018-05-17T02:43:13Z</time>
      </trkpt>
      <trkpt lat="49.14633" lon="1.9277">
        <ele>76</ele>
        <time>2018-05-17T02:44:13Z</time>
      </trkpt>
      <trkpt lat="49.14633" lon="1.92828">
        <ele>76</ele>
        <time>2018-05-17T02:45:13Z</time>
      </trkpt>
      <trkpt lat="49.14639" lon="1.92876">
        <ele>75</ele>
        <time>2018-05-17T02:46:13Z</time>
      </trkpt>
      <trkpt lat="49.14645" lon="1.92927">
        <ele>74</ele>
        <time>2018-05-17T02:47:13Z</time>
      </trkpt>
      <trkpt lat="49.14645" lon="1.93021">
        <ele>74</ele>
        <time>2018-05-17T02:48:13Z</time>
      </trkpt>
      <trkpt lat="49.14639" lon="1.93073">
        <ele>74</ele>
        <time>2018-05-17T02:49:13Z</time>
      </trkpt>
      <trkpt lat="49.14624" lon="1.93131">
        <ele>73</ele>
        <time>2018-05-17T02:50:13Z</time>
      </trkpt>
      <trkpt lat="49.14606" lon="1.93185">
        <ele>71</ele>
        <time>2018-05-17T02:51:13Z</time>
      </trkpt>
      <trkpt lat="49.1459" lon="1.93223">
        <ele>69</ele>
        <time>2018-05-17T02:52:13Z</time>
      </trkpt>
      <trkpt lat="49.1457" lon="1.9328">
        <ele>69</ele>
        <time>2018-05-17T02:53:13Z</time>
      </trkpt>
      <trkpt lat="49.14551" lon="1.93339">
        <ele>68</ele>
        <time>2018-05-17T02:54:13Z</time>
      </trkpt>
      <trkpt lat="49.14537" lon="1.934">
        <ele>68</ele>
        <time>2018-05-17T02:55:13Z</time>
      </trkpt>
      <trkpt lat="49.14528" lon="1.93441">
        <ele>66</ele>
        <time>2018-05-17T02:56:13Z</time>
      </trkpt>
      <trkpt lat="49.14526" lon="1.93484">
        <ele>66</ele>
        <time>2018-05-17T02:57:13Z</time>
      </trkpt>
      <trkpt lat="49.1454" lon="1.93522">
        <ele>65</ele>
        <time>2018-05-17T02:58:13Z</time>
      </trkpt>
      <trkpt lat="49.14576" lon="1.93557">
        <ele>66</ele>
        <time>2018-05-17T02:59:13Z</time>
      </trkpt>
      <trkpt lat="49.1461" lon="1.93578">
        <ele>65</ele>
        <time>2018-05-17T03:00:13Z</time>
      </trkpt>
      <trkpt lat="49.14625" lon="1.93584">
        <ele>65</ele>
        <time>2018-05-17T03:01:13Z</time>
      </trkpt>
      <trkpt lat="49.14653" lon="1.93596">
        <ele>66</ele>
        <time>2018-05-17T03:02:13Z</time>
      </trkpt>
      <trkpt lat="49.14658" lon="1.93615">
        <ele>63</ele>
        <time>2018-05-17T03:03:13Z</time>
      </trkpt>
      <trkpt lat="49.14659" lon="1.93692">
        <ele>57</ele>
        <time>2018-05-17T03:04:13Z</time>
      </trkpt>
      <trkpt lat="49.1465" lon="1.93722">
        <ele>57</ele>
        <time>2018-05-17T03:05:13Z</time>
      </trkpt>
      <trkpt lat="49.14644" lon="1.93737">
        <ele>57</ele>
        <time>2018-05-17T03:06:13Z</time>
      </trkpt>
      <trkpt lat="49.14626" lon="1.9377">
        <ele>57</ele>
        <time>2018-05-17T03:07:13Z</time>
      </trkpt>
      <trkpt lat="49.14617" lon="1.93823">
        <ele>58</ele>
        <time>2018-05-17T03:08:13Z</time>
      </trkpt>
      <trkpt lat="49.14617" lon="1.93866">
        <ele>59</ele>
        <time>2018-05-17T03:09:13Z</time>
      </trkpt>
      <trkpt lat="49.14617" lon="1.93895">
        <ele>61</ele>
        <time>2018-05-17T03:10:13Z</time>
      </trkpt>
      <trkpt lat="49.1462" lon="1.93921">
        <ele>62</ele>
        <time>2018-05-17T03:11:13Z</time>
      </trkpt>
      <trkpt lat="49.14634" lon="1.93958">
        <ele>65</ele>
        <time>2018-05-17T03:12:13Z</time>
      </trkpt>
      <trkpt lat="49.14614" lon="1.93986">
        <ele>66</ele>
        <time>2018-05-17T03:13:13Z</time>
      </trkpt>
      <trkpt lat="49.14604" lon="1.93996">
        <ele>66</ele>
        <time>2018-05-17T03:14:13Z</time>
      </trkpt>
      <trkpt lat="49.14582" lon="1.94003">
        <ele>64</ele>
        <time>2018-05-17T03:15:13Z</time>
      </trkpt>
      <trkpt lat="49.14566" lon="1.93999">
        <ele>65</ele>
        <time>2018-05-17T03:16:13Z</time>
      </trkpt>
      <trkpt lat="49.14552" lon="1.93991">
        <ele>66</ele>
        <time>2018-05-17T03:17:13Z</time>
      </trkpt>
      <trkpt lat="49.14515" lon="1.93956">
        <ele>66</ele>
        <time>2018-05-17T03:18:13Z</time>
      </trkpt>
      <trkpt lat="49.14502" lon="1.93946">
        <ele>66</ele>
        <time>2018-05-17T03:19:13Z</time>
      </trkpt>
      <trkpt lat="49.14486" lon="1.9394">
        <ele>66</ele>
        <time>2018-05-17T03:20:13Z</time>
      </trkpt>
      <trkpt lat="49.14458" lon="1.9394">
        <ele>67</ele>
        <time>2018-05-17T03:21:13Z</time>
      </trkpt>
      <trkpt lat="49.14361" lon="1.9399">
        <ele>73</ele>
        <time>2018-05-17T03:22:13Z</time>
      </trkpt>
      <trkpt lat="49.14334" lon="1.94001">
        <ele>74</ele>
        <time>2018-05-17T03:23:13Z</time>
      </trkpt>
      <trkpt lat="49.14318" lon="1.94005">
        <ele>75</ele>
        <time>2018-05-17T03:24:13Z</time>
      </trkpt>
      <trkpt lat="49.14301" lon="1.94003">
        <ele>75</ele>
        <time>2018-05-17T03:25:13Z</time>
      </trkpt>
      <trkpt lat="49.14255" lon="1.93986">
        <ele>73</ele>
        <time>2018-05-17T03:26:13Z</time>
      </trkpt>
      <trkpt lat="49.14215" lon="1.93977">
        <ele>71</ele>
        <time>2018-05-17T03:27:13Z</time>
      </trkpt>
      <trkpt lat="49.14156" lon="1.93977">
        <ele>70</ele>
        <time>2018-05-17T03:28:13Z</time>
      </trkpt>
      <trkpt lat="49.14072" lon="1.93977">
        <ele>69</ele>
        <time>2018-05-17T03:29:13Z</time>
      </trkpt>
      <trkpt lat="49.13991" lon="1.93982">
        <ele>67</ele>
        <time>2018-05-17T03:30:13Z</time>
      </trkpt>
      <trkpt lat="49.13955" lon="1.93992">
        <ele>65</ele>
        <time>2018-05-17T03:31:13Z</time>
      </trkpt>
      <trkpt lat="49.13934" lon="1.94013">
        <ele>65</ele>
        <time>2018-05-17T03:32:13Z</time>
      </trkpt>
      <trkpt lat="49.13907" lon="1.94054">
        <ele>64</ele>
        <time>2018-05-17T03:33:13Z</time>
      </trkpt>
      <trkpt lat="49.13868" lon="1.94129">
        <ele>64</ele>
        <time>2018-05-17T03:34:13Z</time>
      </trkpt>
      <trkpt lat="49.13857" lon="1.94161">
        <ele>65</ele>
        <time>2018-05-17T03:35:13Z</time>
      </trkpt>
      <trkpt lat="49.13852" lon="1.94198">
        <ele>65</ele>
        <time>2018-05-17T03:36:13Z</time>
      </trkpt>
      <trkpt lat="49.1384" lon="1.94245">
        <ele>66</ele>
        <time>2018-05-17T03:37:13Z</time>
      </trkpt>
      <trkpt lat="49.13822" lon="1.94271">
        <ele>66</ele>
        <time>2018-05-17T03:38:13Z</time>
      </trkpt>
      <trkpt lat="49.13807" lon="1.94294">
        <ele>66</ele>
        <time>2018-05-17T03:39:13Z</time>
      </trkpt>
      <trkpt lat="49.1379" lon="1.94298">
        <ele>65</ele>
        <time>2018-05-17T03:40:13Z</time>
      </trkpt>
      <trkpt lat="49.13768" lon="1.94321">
        <ele>64</ele>
        <time>2018-05-17T03:41:13Z</time>
      </trkpt>
      <trkpt lat="49.13756" lon="1.94335">
        <ele>64</ele>
        <time>2018-05-17T03:42:13Z</time>
      </trkpt>
      <trkpt lat="49.13761" lon="1.9435">
        <ele>65</ele>
        <time>2018-05-17T03:43:13Z</time>
      </trkpt>
      <trkpt lat="49.13773" lon="1.94397">
        <ele>70</ele>
        <time>2018-05-17T03:44:13Z</time>
      </trkpt>
      <trkpt lat="49.13775" lon="1.94448">
        <ele>74</ele>
        <time>2018-05-17T03:45:13Z</time>
      </trkpt>
      <trkpt lat="49.13774" lon="1.94481">
        <ele>77</ele>
        <time>2018-05-17T03:46:13Z</time>
      </trkpt>
      <trkpt lat="49.13766" lon="1.94571">
        <ele>84</ele>
        <time>2018-05-17T03:47:13Z</time>
      </trkpt>
      <trkpt lat="49.13793" lon="1.94577">
        <ele>89</ele>
        <time>2018-05-17T03:48:13Z</time>
      </trkpt>
      <trkpt lat="49.13813" lon="1.94577">
        <ele>93</ele>
        <time>2018-05-17T03:49:13Z</time>
      </trkpt>
      <trkpt lat="49.13808" lon="1.94606">
        <ele>95</ele>
        <time>2018-05-17T03:50:13Z</time>
      </trkpt>
      <trkpt lat="49.13774" lon="1.94695">
        <ele>97</ele>
        <time>2018-05-17T03:51:13Z</time>
      </trkpt>
      <trkpt lat="49.1378" lon="1.94766">
        <ele>104</ele>
        <time>2018-05-17T03:52:13Z</time>
      </trkpt>
      <trkpt lat="49.13786" lon="1.94833">
        <ele>108</ele>
        <time>2018-05-17T03:53:13Z</time>
      </trkpt>
      <trkpt lat="49.1379" lon="1.94911">
        <ele>108</ele>
        <time>2018-05-17T03:54:13Z</time>
      </trkpt>
      <trkpt lat="49.13799" lon="1.95008">
        <ele>109</ele>
        <time>2018-05-17T03:55:13Z</time>
      </trkpt>
      <trkpt lat="49.13807" lon="1.95089">
        <ele>108</ele>
        <time>2018-05-17T03:56:13Z</time>
      </trkpt>
      <trkpt lat="49.13807" lon="1.95179">
        <ele>107</ele>
        <time>2018-05-17T03:57:13Z</time>
      </trkpt>
      <trkpt lat="49.13797" lon="1.95249">
        <ele>107</ele>
        <time>2018-05-17T03:58:13Z</time>
      </trkpt>
      <trkpt lat="49.13774" lon="1.95368">
        <ele>107</ele>
        <time>2018-05-17T03:59:13Z</time>
      </trkpt>
      <trkpt lat="49.13768" lon="1.95422">
        <ele>107</ele>
        <time>2018-05-17T04:00:13Z</time>
      </trkpt>
      <trkpt lat="49.13762" lon="1.95483">
        <ele>107</ele>
        <time>2018-05-17T04:01:13Z</time>
      </trkpt>
      <trkpt lat="49.13761" lon="1.95545">
        <ele>107</ele>
        <time>2018-05-17T04:02:13Z</time>
      </trkpt>
      <trkpt lat="49.13757" lon="1.95613">
        <ele>108</ele>
        <time>2018-05-17T04:03:13Z</time>
      </trkpt>
      <trkpt lat="49.1376" lon="1.95632">
        <ele>108</ele>
        <time>2018-05-17T04:04:13Z</time>
      </trkpt>
      <trkpt lat="49.1376" lon="1.95632">
        <ele>108</ele>
        <time>2018-05-17T04:05:13Z</time>
      </trkpt>
      <trkpt lat="49.13723" lon="1.95596">
        <ele>108</ele>
        <time>2018-05-17T04:06:13Z</time>
      </trkpt>
      <trkpt lat="49.13655" lon="1.9554">
        <ele>107</ele>
        <time>2018-05-17T04:07:13Z</time>
      </trkpt>
      <trkpt lat="49.13634" lon="1.95525">
        <ele>106</ele>
        <time>2018-05-17T04:08:13Z</time>
      </trkpt>
      <trkpt lat="49.13603" lon="1.9551">
        <ele>106</ele>
        <time>2018-05-17T04:09:13Z</time>
      </trkpt>
      <trkpt lat="49.13549" lon="1.95479">
        <ele>105</ele>
        <time>2018-05-17T04:10:13Z</time>
      </trkpt>
      <trkpt lat="49.13467" lon="1.95413">
        <ele>101</ele>
        <time>2018-05-17T04:11:13Z</time>
      </trkpt>
      <trkpt lat="49.13356" lon="1.95302">
        <ele>94</ele>
        <time>2018-05-17T04:12:13Z</time>
      </trkpt>
      <trkpt lat="49.13326" lon="1.95283">
        <ele>91</ele>
        <time>2018-05-17T04:13:13Z</time>
      </trkpt>
      <trkpt lat="49.13304" lon="1.9534">
        <ele>94</ele>
        <time>2018-05-17T04:14:13Z</time>
      </trkpt>
      <trkpt lat="49.13262" lon="1.95569">
        <ele>99</ele>
        <time>2018-05-17T04:15:13Z</time>
      </trkpt>
      <trkpt lat="49.13261" lon="1.95571">
        <ele>99</ele>
        <time>2018-05-17T04:16:13Z</time>
      </trkpt>
      <trkpt lat="49.13241" lon="1.95644">
        <ele>100</ele>
        <time>2018-05-17T04:17:13Z</time>
      </trkpt>
      <trkpt lat="49.13193" lon="1.95806">
        <ele>101</ele>
        <time>2018-05-17T04:18:13Z</time>
      </trkpt>
      <trkpt lat="49.13154" lon="1.95877">
        <ele>101</ele>
        <time>2018-05-17T04:19:13Z</time>
      </trkpt>
      <trkpt lat="49.13095" lon="1.95966">
        <ele>99</ele>
        <time>2018-05-17T04:20:13Z</time>
      </trkpt>
      <trkpt lat="49.1303" lon="1.96058">
        <ele>96</ele>
        <time>2018-05-17T04:21:13Z</time>
      </trkpt>
      <trkpt lat="49.12976" lon="1.96143">
        <ele>94</ele>
        <time>2018-05-17T04:22:13Z</time>
      </trkpt>
      <trkpt lat="49.12868" lon="1.9631">
        <ele>91</ele>
        <time>2018-05-17T04:23:13Z</time>
      </trkpt>
      <trkpt lat="49.12856" lon="1.96383">
        <ele>90</ele>
        <time>2018-05-17T04:24:13Z</time>
      </trkpt>
      <trkpt lat="49.12851" lon="1.96502">
        <ele>91</ele>
        <time>2018-05-17T04:25:13Z</time>
      </trkpt>
      <trkpt lat="49.12849" lon="1.96584">
        <ele>94</ele>
        <time>2018-05-17T04:26:13Z</time>
      </trkpt>
      <trkpt lat="49.12841" lon="1.96631">
        <ele>94</ele>
        <time>2018-05-17T04:27:13Z</time>
      </trkpt>
      <trkpt lat="49.12832" lon="1.9666">
        <ele>95</ele>
        <time>2018-05-17T04:28:13Z</time>
      </trkpt>
      <trkpt lat="49.12795" lon="1.96802">
        <ele>102</ele>
        <time>2018-05-17T04:29:13Z</time>
      </trkpt>
      <trkpt lat="49.12779" lon="1.96852">
        <ele>105</ele>
        <time>2018-05-17T04:30:13Z</time>
      </trkpt>
      <trkpt lat="49.12756" lon="1.96915">
        <ele>110</ele>
        <time>2018-05-17T04:31:13Z</time>
      </trkpt>
      <trkpt lat="49.12748" lon="1.96947">
        <ele>112</ele>
        <time>2018-05-17T04:32:13Z</time>
      </trkpt>
      <trkpt lat="49.12738" lon="1.96972">
        <ele>114</ele>
        <time>2018-05-17T04:33:13Z</time>
      </trkpt>
      <trkpt lat="49.12727" lon="1.96993">
        <ele>115</ele>
        <time>2018-05-17T04:34:13Z</time>
      </trkpt>
      <trkpt lat="49.12709" lon="1.97024">
        <ele>116</ele>
        <time>2018-05-17T04:35:13Z</time>
      </trkpt>
      <trkpt lat="49.12694" lon="1.97041">
        <ele>116</ele>
        <time>2018-05-17T04:36:13Z</time>
      </trkpt>
      <trkpt lat="49.12694" lon="1.97041">
        <ele>116</ele>
        <time>2018-05-17T04:37:13Z</time>
      </trkpt>
      <trkpt lat="49.12695" lon="1.96967">
        <ele>114</ele>
        <time>2018-05-17T04:38:13Z</time>
      </trkpt>
      <trkpt lat="49.12684" lon="1.96877">
        <ele>110</ele>
        <time>2018-05-17T04:39:13Z</time>
      </trkpt>
      <trkpt lat="49.12672" lon="1.9682">
        <ele>107</ele>
        <time>2018-05-17T04:40:13Z</time>
      </trkpt>
      <trkpt lat="49.12662" lon="1.9678">
        <ele>106</ele>
        <time>2018-05-17T04:41:13Z</time>
      </trkpt>
      <trkpt lat="49.1265" lon="1.96735">
        <ele>105</ele>
        <time>2018-05-17T04:42:13Z</time>
      </trkpt>
      <trkpt lat="49.12643" lon="1.96696">
        <ele>104</ele>
        <time>2018-05-17T04:43:13Z</time>
      </trkpt>
      <trkpt lat="49.12641" lon="1.9659">
        <ele>101</ele>
        <time>2018-05-17T04:44:13Z</time>
      </trkpt>
      <trkpt lat="49.1264" lon="1.9655">
        <ele>100</ele>
        <time>2018-05-17T04:45:13Z</time>
      </trkpt>
      <trkpt lat="49.12634" lon="1.9649">
        <ele>100</ele>
        <time>2018-05-17T04:46:13Z</time>
      </trkpt>
      <trkpt lat="49.12632" lon="1.96441">
        <ele>100</ele>
        <time>2018-05-17T04:47:13Z</time>
      </trkpt>
      <trkpt lat="49.12631" lon="1.96409">
        <ele>100</ele>
        <time>2018-05-17T04:48:13Z</time>
      </trkpt>
      <trkpt lat="49.12631" lon="1.96376">
        <ele>99</ele>
        <time>2018-05-17T04:49:13Z</time>
      </trkpt>
      <trkpt lat="49.12628" lon="1.96328">
        <ele>97</ele>
        <time>2018-05-17T04:50:13Z</time>
      </trkpt>
      <trkpt lat="49.12629" lon="1.96266">
        <ele>94</ele>
        <time>2018-05-17T04:51:13Z</time>
      </trkpt>
      <trkpt lat="49.12631" lon="1.96133">
        <ele>88</ele>
        <time>2018-05-17T04:52:13Z</time>
      </trkpt>
      <trkpt lat="49.12632" lon="1.96099">
        <ele>87</ele>
        <time>2018-05-17T04:53:13Z</time>
      </trkpt>
      <trkpt lat="49.12612" lon="1.9609">
        <ele>87</ele>
        <time>2018-05-17T04:54:13Z</time>
      </trkpt>
      <trkpt lat="49.12587" lon="1.96061">
        <ele>87</ele>
        <time>2018-05-17T04:55:13Z</time>
      </trkpt>
      <trkpt lat="49.12559" lon="1.96038">
        <ele>89</ele>
        <time>2018-05-17T04:56:13Z</time>
      </trkpt>
      <trkpt lat="49.12539" lon="1.96026">
        <ele>91</ele>
        <time>2018-05-17T04:57:13Z</time>
      </trkpt>
      <trkpt lat="49.12525" lon="1.96004">
        <ele>92</ele>
        <time>2018-05-17T04:58:13Z</time>
      </trkpt>
      <trkpt lat="49.12493" lon="1.95954">
        <ele>92</ele>
        <time>2018-05-17T04:59:13Z</time>
      </trkpt>
      <trkpt lat="49.12467" lon="1.95911">
        <ele>91</ele>
        <time>2018-05-17T05:00:13Z</time>
      </trkpt>
      <trkpt lat="49.12452" lon="1.95895">
        <ele>92</ele>
        <time>2018-05-17T05:01:13Z</time>
      </trkpt>
      <trkpt lat="49.1243" lon="1.95874">
        <ele>92</ele>
        <time>2018-05-17T05:02:13Z</time>
      </trkpt>
      <trkpt lat="49.12412" lon="1.95866">
        <ele>93</ele>
        <time>2018-05-17T05:03:13Z</time>
      </trkpt>
      <trkpt lat="49.12379" lon="1.95865">
        <ele>94</ele>
        <time>2018-05-17T05:04:13Z</time>
      </trkpt>
      <trkpt lat="49.12352" lon="1.95873">
        <ele>95</ele>
        <time>2018-05-17T05:05:13Z</time>
      </trkpt>
      <trkpt lat="49.12334" lon="1.95885">
        <ele>95</ele>
        <time>2018-05-17T05:06:13Z</time>
      </trkpt>
      <trkpt lat="49.12292" lon="1.95929">
        <ele>97</ele>
        <time>2018-05-17T05:07:13Z</time>
      </trkpt>
      <trkpt lat="49.1225" lon="1.95959">
        <ele>97</ele>
        <time>2018-05-17T05:08:13Z</time>
      </trkpt>
      <trkpt lat="49.12236" lon="1.95969">
        <ele>96</ele>
        <time>2018-05-17T05:09:13Z</time>
      </trkpt>
      <trkpt lat="49.1222" lon="1.95986">
        <ele>95</ele>
        <time>2018-05-17T05:10:13Z</time>
      </trkpt>
      <trkpt lat="49.12201" lon="1.96016">
        <ele>93</ele>
        <time>2018-05-17T05:11:13Z</time>
      </trkpt>
      <trkpt lat="49.12179" lon="1.96068">
        <ele>89</ele>
        <time>2018-05-17T05:12:13Z</time>
      </trkpt>
      <trkpt lat="49.12158" lon="1.96101">
        <ele>84</ele>
        <time>2018-05-17T05:13:13Z</time>
      </trkpt>
      <trkpt lat="49.1212" lon="1.96174">
        <ele>78</ele>
        <time>2018-05-17T05:14:13Z</time>
      </trkpt>
      <trkpt lat="49.12106" lon="1.96208">
        <ele>76</ele>
        <time>2018-05-17T05:15:13Z</time>
      </trkpt>
      <trkpt lat="49.1209" lon="1.96259">
        <ele>74</ele>
        <time>2018-05-17T05:16:13Z</time>
      </trkpt>
      <trkpt lat="49.12076" lon="1.96307">
        <ele>73</ele>
        <time>2018-05-17T05:17:13Z</time>
      </trkpt>
      <trkpt lat="49.12071" lon="1.96343">
        <ele>73</ele>
        <time>2018-05-17T05:18:13Z</time>
      </trkpt>
      <trkpt lat="49.12067" lon="1.96387">
        <ele>73</ele>
        <time>2018-05-17T05:19:13Z</time>
      </trkpt>
      <trkpt lat="49.12072" lon="1.96431">
        <ele>73</ele>
        <time>2018-05-17T05:20:13Z</time>
      </trkpt>
      <trkpt lat="49.12079" lon="1.96481">
        <ele>73</ele>
        <time>2018-05-17T05:21:13Z</time>
      </trkpt>
      <trkpt lat="49.1208" lon="1.96498">
        <ele>73</ele>
        <time>2018-05-17T05:22:13Z</time>
      </trkpt>
      <trkpt lat="49.12077" lon="1.96512">
        <ele>73</ele>
        <time>2018-05-17T05:23:13Z</time>
      </trkpt>
      <trkpt lat="49.12067" lon="1.96522">
        <ele>73</ele>
        <time>2018-05-17T05:24:13Z</time>
      </trkpt>
      <trkpt lat="49.12048" lon="1.96525">
        <ele>74</ele>
        <time>2018-05-17T05:25:13Z</time>
      </trkpt>
      <trkpt lat="49.12006" lon="1.96512">
        <ele>76</ele>
        <time>2018-05-17T05:26:13Z</time>
      </trkpt>
      <trkpt lat="49.11965" lon="1.96467">
        <ele>78</ele>
        <time>2018-05-17T05:27:13Z</time>
      </trkpt>
      <trkpt lat="49.11934" lon="1.96424">
        <ele>81</ele>
        <time>2018-05-17T05:28:13Z</time>
      </trkpt>
      <trkpt lat="49.11922" lon="1.96418">
        <ele>82</ele>
        <time>2018-05-17T05:29:13Z</time>
      </trkpt>
      <trkpt lat="49.11921" lon="1.96418">
        <ele>82</ele>
        <time>2018-05-17T05:30:13Z</time>
      </trkpt>
      <trkpt lat="49.11825" lon="1.96431">
        <ele>87</ele>
        <time>2018-05-17T05:31:13Z</time>
      </trkpt>
      <trkpt lat="49.11783" lon="1.96431">
        <ele>87</ele>
        <time>2018-05-17T05:32:13Z</time>
      </trkpt>
      <trkpt lat="49.11748" lon="1.96433">
        <ele>87</ele>
        <time>2018-05-17T05:33:13Z</time>
      </trkpt>
      <trkpt lat="49.11716" lon="1.9644">
        <ele>83</ele>
        <time>2018-05-17T05:34:13Z</time>
      </trkpt>
      <trkpt lat="49.11699" lon="1.96441">
        <ele>81</ele>
        <time>2018-05-17T05:35:13Z</time>
      </trkpt>
      <trkpt lat="49.11677" lon="1.96434">
        <ele>79</ele>
        <time>2018-05-17T05:36:13Z</time>
      </trkpt>
      <trkpt lat="49.11648" lon="1.96401">
        <ele>78</ele>
        <time>2018-05-17T05:37:13Z</time>
      </trkpt>
      <trkpt lat="49.11609" lon="1.96375">
        <ele>78</ele>
        <time>2018-05-17T05:38:13Z</time>
      </trkpt>
      <trkpt lat="49.11588" lon="1.96364">
        <ele>77</ele>
        <time>2018-05-17T05:39:13Z</time>
      </trkpt>
      <trkpt lat="49.11567" lon="1.96356">
        <ele>75</ele>
        <time>2018-05-17T05:40:13Z</time>
      </trkpt>
      <trkpt lat="49.11533" lon="1.96354">
        <ele>73</ele>
        <time>2018-05-17T05:41:13Z</time>
      </trkpt>
      <trkpt lat="49.11518" lon="1.96358">
        <ele>72</ele>
        <time>2018-05-17T05:42:13Z</time>
      </trkpt>
      <trkpt lat="49.11496" lon="1.96377">
        <ele>72</ele>
        <time>2018-05-17T05:43:13Z</time>
      </trkpt>
      <trkpt lat="49.11476" lon="1.96403">
        <ele>71</ele>
        <time>2018-05-17T05:44:13Z</time>
      </trkpt>
      <trkpt lat="49.11467" lon="1.96419">
        <ele>71</ele>
        <time>2018-05-17T05:45:13Z</time>
      </trkpt>
      <trkpt lat="49.11438" lon="1.96468">
        <ele>69</ele>
        <time>2018-05-17T05:46:13Z</time>
      </trkpt>
      <trkpt lat="49.11402" lon="1.96537">
        <ele>66</ele>
        <time>2018-05-17T05:47:13Z</time>
      </trkpt>
      <trkpt lat="49.11387" lon="1.9657">
        <ele>66</ele>
        <time>2018-05-17T05:48:13Z</time>
      </trkpt>
      <trkpt lat="49.11378" lon="1.96598">
        <ele>66</ele>
        <time>2018-05-17T05:49:13Z</time>
      </trkpt>
      <trkpt lat="49.11352" lon="1.96614">
        <ele>62</ele>
        <time>2018-05-17T05:50:13Z</time>
      </trkpt>
      <trkpt lat="49.11341" lon="1.96608">
        <ele>60</ele>
        <time>2018-05-17T05:51:13Z</time>
      </trkpt>
      <trkpt lat="49.11331" lon="1.9656">
        <ele>57</ele>
        <time>2018-05-17T05:52:13Z</time>
      </trkpt>
      <trkpt lat="49.11318" lon="1.96483">
        <ele>53</ele>
        <time>2018-05-17T05:53:13Z</time>
      </trkpt>
      <trkpt lat="49.11305" lon="1.96424">
        <ele>52</ele>
        <time>2018-05-17T05:54:13Z</time>
      </trkpt>
      <trkpt lat="49.11294" lon="1.96366">
        <ele>52</ele>
        <time>2018-05-17T05:55:13Z</time>
      </trkpt>
      <trkpt lat="49.11282" lon="1.96354">
        <ele>53</ele>
        <time>2018-05-17T05:56:13Z</time>
      </trkpt>
      <trkpt lat="49.11274" lon="1.96353">
        <ele>53</ele>
        <time>2018-05-17T05:57:13Z</time>
      </trkpt>
      <trkpt lat="49.11233" lon="1.96388">
        <ele>53</ele>
        <time>2018-05-17T05:58:13Z</time>
      </trkpt>
      <trkpt lat="49.11214" lon="1.96396">
        <ele>54</ele>
        <time>2018-05-17T05:59:13Z</time>
      </trkpt>
      <trkpt lat="49.11199" lon="1.96393">
        <ele>55</ele>
        <time>2018-05-17T06:00:13Z</time>
      </trkpt>
      <trkpt lat="49.11174" lon="1.96378">
        <ele>56</ele>
        <time>2018-05-17T06:01:13Z</time>
      </trkpt>
      <trkpt lat="49.1115" lon="1.96363">
        <ele>57</ele>
        <time>2018-05-17T06:02:13Z</time>
      </trkpt>
      <trkpt lat="49.11114" lon="1.96353">
        <ele>58</ele>
        <time>2018-05-17T06:03:13Z</time>
      </trkpt>
      <trkpt lat="49.11092" lon="1.96355">
        <ele>59</ele>
        <time>2018-05-17T06:04:13Z</time>
      </trkpt>
      <trkpt lat="49.11048" lon="1.9637">
        <ele>59</ele>
        <time>2018-05-17T06:05:13Z</time>
      </trkpt>
      <trkpt lat="49.11016" lon="1.96372">
        <ele>60</ele>
        <time>2018-05-17T06:06:13Z</time>
      </trkpt>
      <trkpt lat="49.10969" lon="1.96376">
        <ele>61</ele>
        <time>2018-05-17T06:07:13Z</time>
      </trkpt>
      <trkpt lat="49.10919" lon="1.96393">
        <ele>61</ele>
        <time>2018-05-17T06:08:13Z</time>
      </trkpt>
      <trkpt lat="49.1089" lon="1.964">
        <ele>59</ele>
        <time>2018-05-17T06:09:13Z</time>
      </trkpt>
      <trkpt lat="49.10863" lon="1.96402">
        <ele>58</ele>
        <time>2018-05-17T06:10:13Z</time>
      </trkpt>
      <trkpt lat="49.10815" lon="1.964">
        <ele>57</ele>
        <time>2018-05-17T06:11:13Z</time>
      </trkpt>
      <trkpt lat="49.1077" lon="1.96403">
        <ele>57</ele>
        <time>2018-05-17T06:12:13Z</time>
      </trkpt>
      <trkpt lat="49.10723" lon="1.96417">
        <ele>56</ele>
        <time>2018-05-17T06:13:13Z</time>
      </trkpt>
      <trkpt lat="49.10694" lon="1.9643">
        <ele>56</ele>
        <time>2018-05-17T06:14:13Z</time>
      </trkpt>
      <trkpt lat="49.10541" lon="1.96499">
        <ele>58</ele>
        <time>2018-05-17T06:15:13Z</time>
      </trkpt>
      <trkpt lat="49.10495" lon="1.96521">
        <ele>58</ele>
        <time>2018-05-17T06:16:13Z</time>
      </trkpt>
      <trkpt lat="49.10469" lon="1.96543">
        <ele>57</ele>
        <time>2018-05-17T06:17:13Z</time>
      </trkpt>
      <trkpt lat="49.10433" lon="1.96573">
        <ele>57</ele>
        <time>2018-05-17T06:18:13Z</time>
      </trkpt>
      <trkpt lat="49.10408" lon="1.96591">
        <ele>57</ele>
        <time>2018-05-17T06:19:13Z</time>
      </trkpt>
      <trkpt lat="49.10384" lon="1.96601">
        <ele>57</ele>
        <time>2018-05-17T06:20:13Z</time>
      </trkpt>
      <trkpt lat="49.10361" lon="1.96608">
        <ele>58</ele>
        <time>2018-05-17T06:21:13Z</time>
      </trkpt>
      <trkpt lat="49.10272" lon="1.96618">
        <ele>57</ele>
        <time>2018-05-17T06:22:13Z</time>
      </trkpt>
      <trkpt lat="49.10252" lon="1.9662">
        <ele>57</ele>
        <time>2018-05-17T06:23:13Z</time>
      </trkpt>
      <trkpt lat="49.10231" lon="1.96631">
        <ele>57</ele>
        <time>2018-05-17T06:24:13Z</time>
      </trkpt>
      <trkpt lat="49.10216" lon="1.96634">
        <ele>58</ele>
        <time>2018-05-17T06:25:13Z</time>
      </trkpt>
      <trkpt lat="49.10188" lon="1.96637">
        <ele>58</ele>
        <time>2018-05-17T06:26:13Z</time>
      </trkpt>
      <trkpt lat="49.10163" lon="1.96638">
        <ele>59</ele>
        <time>2018-05-17T06:27:13Z</time>
      </trkpt>
      <trkpt lat="49.10145" lon="1.96641">
        <ele>60</ele>
        <time>2018-05-17T06:28:13Z</time>
      </trkpt>
      <trkpt lat="49.10117" lon="1.96741">
        <ele>57</ele>
        <time>2018-05-17T06:29:13Z</time>
      </trkpt>
      <trkpt lat="49.10097" lon="1.96806">
        <ele>56</ele>
        <time>2018-05-17T06:30:13Z</time>
      </trkpt>
      <trkpt lat="49.10075" lon="1.96878">
        <ele>53</ele>
        <time>2018-05-17T06:31:13Z</time>
      </trkpt>
      <trkpt lat="49.10067" lon="1.96912">
        <ele>52</ele>
        <time>2018-05-17T06:32:13Z</time>
      </trkpt>
      <trkpt lat="49.10074" lon="1.96946">
        <ele>51</ele>
        <time>2018-05-17T06:33:13Z</time>
      </trkpt>
      <trkpt lat="49.10093" lon="1.96973">
        <ele>50</ele>
        <time>2018-05-17T06:34:13Z</time>
      </trkpt>
      <trkpt lat="49.10106" lon="1.9702">
        <ele>49</ele>
        <time>2018-05-17T06:35:13Z</time>
      </trkpt>
      <trkpt lat="49.0997" lon="1.97089">
        <ele>50</ele>
        <time>2018-05-17T06:36:13Z</time>
      </trkpt>
      <trkpt lat="49.09969" lon="1.97096">
        <ele>50</ele>
        <time>2018-05-17T06:37:13Z</time>
      </trkpt>
    </trkseg>
  </trk>
</gpx>